createdAt,value
2022-10-04T00:00:19.839Z,1010.21
2022-10-04T00:01:19.906Z,1010.20
2022-10-04T00:02:19.803Z,1010.17
2022-10-04T00:03:19.815Z,1010.23
2022-10-04T00:04:19.773Z,1010.23
2022-10-04T00:05:19.757Z,1010.24
2022-10-04T00:06:19.767Z,1010.23
2022-10-04T00:07:19.723Z,1010.20
2022-10-04T00:08:19.709Z,1010.21
2022-10-04T00:09:19.693Z,1010.23
2022-10-04T00:10:19.678Z,1010.27
2022-10-04T00:11:19.659Z,1010.23
2022-10-04T00:12:19.644Z,1010.23
2022-10-04T00:13:19.628Z,1010.23
2022-10-04T00:14:19.614Z,1010.25
2022-10-04T00:15:19.608Z,1010.22
2022-10-04T00:16:19.660Z,1010.21
2022-10-04T00:17:19.566Z,1010.18
2022-10-04T00:18:19.577Z,1010.13
2022-10-04T00:19:19.531Z,1010.09
2022-10-04T00:20:19.541Z,1010.10
2022-10-04T00:21:19.499Z,1010.09
2022-10-04T00:22:19.487Z,1010.12
2022-10-04T00:23:19.507Z,1010.10
2022-10-04T00:24:19.454Z,1010.16
2022-10-04T00:25:19.439Z,1010.22
2022-10-04T00:26:19.426Z,1010.24
2022-10-04T00:27:19.410Z,1010.28
2022-10-04T00:28:19.434Z,1010.24
2022-10-04T00:29:19.399Z,1010.26
2022-10-04T00:30:19.358Z,1010.25
2022-10-04T00:31:19.401Z,1010.23
2022-10-04T00:32:19.356Z,1010.21
2022-10-04T00:33:19.311Z,1010.20
2022-10-04T00:34:19.299Z,1010.17
2022-10-04T00:35:19.280Z,1010.21
2022-10-04T00:36:19.264Z,1010.18
2022-10-04T00:37:19.244Z,1010.16
2022-10-04T00:38:19.234Z,1010.11
2022-10-04T00:39:19.382Z,1010.06
2022-10-04T00:40:19.199Z,1010.09
2022-10-04T00:41:19.188Z,1010.04
2022-10-04T00:42:19.165Z,1010.07
2022-10-04T00:43:19.155Z,1010.04
2022-10-04T00:44:19.134Z,1010.06
2022-10-04T00:45:19.147Z,1010.01
2022-10-04T00:46:19.150Z,1010.02
2022-10-04T00:47:19.088Z,1010.00
2022-10-04T00:48:19.070Z,1010.01
2022-10-04T00:49:19.055Z,1009.99
2022-10-04T00:50:19.209Z,1009.98
2022-10-04T00:51:19.026Z,1009.92
2022-10-04T00:52:19.010Z,1009.90
2022-10-04T00:53:18.995Z,1009.87
2022-10-04T00:54:18.973Z,1009.86
2022-10-04T00:55:18.962Z,1009.91
2022-10-04T00:56:18.966Z,1009.90
2022-10-04T00:57:18.930Z,1009.83
2022-10-04T00:58:18.908Z,1009.90
2022-10-04T00:59:18.903Z,1009.88
2022-10-04T01:00:18.907Z,1009.91
2022-10-04T01:01:18.919Z,1009.88
2022-10-04T01:02:18.902Z,1009.82
2022-10-04T01:03:18.833Z,1009.82
2022-10-04T01:04:18.811Z,1009.79
2022-10-04T01:05:18.801Z,1009.77
2022-10-04T01:06:18.808Z,1009.77
2022-10-04T01:07:18.776Z,1009.78
2022-10-04T01:08:18.747Z,1009.85
2022-10-04T01:09:18.734Z,1009.89
2022-10-04T01:10:18.742Z,1009.84
2022-10-04T01:11:18.704Z,1009.83
2022-10-04T01:12:18.684Z,1009.84
2022-10-04T01:13:18.673Z,1009.79
2022-10-04T01:14:18.655Z,1009.75
2022-10-04T01:15:18.674Z,1009.74
2022-10-04T01:16:18.663Z,1009.72
2022-10-04T01:17:18.614Z,1009.72
2022-10-04T01:18:18.595Z,1009.74
2022-10-04T01:19:18.594Z,1009.71
2022-10-04T01:20:18.583Z,1009.77
2022-10-04T01:21:18.551Z,1009.84
2022-10-04T01:22:18.554Z,1009.83
2022-10-04T01:23:18.676Z,1009.82
2022-10-04T01:24:18.495Z,1009.83
2022-10-04T01:25:18.482Z,1009.78
2022-10-04T01:26:18.461Z,1009.74
2022-10-04T01:27:18.446Z,1009.72
2022-10-04T01:28:18.485Z,1009.69
2022-10-04T01:29:18.421Z,1009.63
2022-10-04T01:30:18.394Z,1009.60
2022-10-04T01:31:18.419Z,1009.63
2022-10-04T01:32:18.375Z,1009.64
2022-10-04T01:33:18.352Z,1009.60
2022-10-04T01:34:18.334Z,1009.65
2022-10-04T01:35:18.345Z,1009.66
2022-10-04T01:36:18.303Z,1009.67
2022-10-04T01:37:18.287Z,1009.67
2022-10-04T01:38:18.269Z,1009.64
2022-10-04T01:39:18.257Z,1009.64
2022-10-04T01:40:18.267Z,1009.60
2022-10-04T01:41:18.226Z,1009.55
2022-10-04T01:42:18.205Z,1009.58
2022-10-04T01:43:18.192Z,1009.53
2022-10-04T01:44:18.170Z,1009.45
2022-10-04T01:45:18.189Z,1009.49
2022-10-04T01:46:18.182Z,1009.44
2022-10-04T01:47:18.128Z,1009.44
2022-10-04T01:48:18.109Z,1009.47
2022-10-04T01:49:18.094Z,1009.48
2022-10-04T01:50:18.104Z,1009.49
2022-10-04T01:51:18.065Z,1009.49
2022-10-04T01:52:18.042Z,1009.47
2022-10-04T01:53:18.057Z,1009.44
2022-10-04T01:54:18.012Z,1009.46
2022-10-04T01:55:18.200Z,1009.41
2022-10-04T01:56:18.008Z,1009.46
2022-10-04T01:57:17.964Z,1009.40
2022-10-04T01:58:17.950Z,1009.42
2022-10-04T01:59:17.935Z,1009.40
2022-10-04T02:00:17.919Z,1009.42
2022-10-04T02:01:17.978Z,1009.41
2022-10-04T02:02:17.888Z,1009.40
2022-10-04T02:03:17.898Z,1009.38
2022-10-04T02:04:22.073Z,1009.39
2022-10-04T02:05:17.840Z,1009.37
2022-10-04T02:06:17.848Z,1009.37
2022-10-04T02:07:17.808Z,1009.39
2022-10-04T02:08:17.814Z,1009.38
2022-10-04T02:09:17.784Z,1009.38
2022-10-04T02:10:17.757Z,1009.37
2022-10-04T02:11:17.745Z,1009.36
2022-10-04T02:12:17.725Z,1009.36
2022-10-04T02:13:17.737Z,1009.39
2022-10-04T02:14:17.695Z,1009.32
2022-10-04T02:15:17.678Z,1009.30
2022-10-04T02:16:17.690Z,1009.25
2022-10-04T02:17:17.653Z,1009.27
2022-10-04T02:18:17.683Z,1009.27
2022-10-04T02:19:17.616Z,1009.25
2022-10-04T02:20:17.602Z,1009.30
2022-10-04T02:21:17.584Z,1009.27
2022-10-04T02:22:17.563Z,1009.21
2022-10-04T02:23:17.553Z,1009.22
2022-10-04T02:24:17.563Z,1009.23
2022-10-04T02:25:17.520Z,1009.25
2022-10-04T02:26:17.499Z,1009.22
2022-10-04T02:27:17.488Z,1009.21
2022-10-04T02:28:17.503Z,1009.19
2022-10-04T02:29:17.514Z,1009.17
2022-10-04T02:30:17.435Z,1009.17
2022-10-04T02:31:17.469Z,1009.19
2022-10-04T02:32:17.407Z,1009.19
2022-10-04T02:33:17.390Z,1009.21
2022-10-04T02:34:17.373Z,1009.20
2022-10-04T02:35:17.424Z,1009.21
2022-10-04T02:36:17.355Z,1009.17
2022-10-04T02:37:17.332Z,1009.17
2022-10-04T02:38:17.314Z,1009.19
2022-10-04T02:39:17.297Z,1009.12
2022-10-04T02:40:17.277Z,1009.15
2022-10-04T02:41:17.315Z,1009.14
2022-10-04T02:42:17.251Z,1009.16
2022-10-04T02:43:17.234Z,1009.14
2022-10-04T02:44:17.212Z,1009.13
2022-10-04T02:45:17.210Z,1009.11
2022-10-04T02:46:17.227Z,1009.06
2022-10-04T02:47:17.324Z,1009.08
2022-10-04T02:48:17.149Z,1009.05
2022-10-04T02:49:17.135Z,1009.03
2022-10-04T02:50:17.120Z,1008.99
2022-10-04T02:51:17.102Z,1008.97
2022-10-04T02:52:17.093Z,1008.98
2022-10-04T02:53:17.073Z,1008.98
2022-10-04T02:54:17.082Z,1008.97
2022-10-04T02:55:17.039Z,1008.97
2022-10-04T02:56:17.024Z,1008.96
2022-10-04T02:57:17.010Z,1009.00
2022-10-04T02:58:16.988Z,1008.97
2022-10-04T02:59:17.007Z,1008.93
2022-10-04T03:00:16.955Z,1008.95
2022-10-04T03:01:16.969Z,1008.94
2022-10-04T03:02:16.956Z,1008.94
2022-10-04T03:03:16.926Z,1008.94
2022-10-04T03:04:16.920Z,1008.94
2022-10-04T03:05:16.881Z,1008.95
2022-10-04T03:06:16.859Z,1008.90
2022-10-04T03:07:16.857Z,1008.89
2022-10-04T03:08:16.829Z,1008.90
2022-10-04T03:09:16.843Z,1008.87
2022-10-04T03:10:16.800Z,1008.84
2022-10-04T03:11:16.786Z,1008.84
2022-10-04T03:12:16.774Z,1008.83
2022-10-04T03:13:16.752Z,1008.79
2022-10-04T03:14:16.746Z,1008.82
2022-10-04T03:15:16.719Z,1008.86
2022-10-04T03:16:16.794Z,1008.80
2022-10-04T03:17:16.688Z,1008.82
2022-10-04T03:18:16.669Z,1008.82
2022-10-04T03:19:16.733Z,1008.80
2022-10-04T03:20:16.652Z,1008.80
2022-10-04T03:21:16.626Z,1008.77
2022-10-04T03:22:16.633Z,1008.75
2022-10-04T03:23:16.593Z,1008.74
2022-10-04T03:24:16.575Z,1008.72
2022-10-04T03:25:16.558Z,1008.70
2022-10-04T03:26:16.542Z,1008.73
2022-10-04T03:27:16.554Z,1008.73
2022-10-04T03:28:16.588Z,1008.72
2022-10-04T03:29:16.493Z,1008.71
2022-10-04T03:30:16.478Z,1008.72
2022-10-04T03:31:16.499Z,1008.74
2022-10-04T03:32:16.469Z,1008.73
2022-10-04T03:33:16.434Z,1008.73
2022-10-04T03:34:16.414Z,1008.70
2022-10-04T03:35:16.400Z,1008.69
2022-10-04T03:36:16.384Z,1008.70
2022-10-04T03:37:16.422Z,1008.69
2022-10-04T03:38:16.351Z,1008.70
2022-10-04T03:39:16.337Z,1008.66
2022-10-04T03:40:16.317Z,1008.70
2022-10-04T03:41:16.307Z,1008.69
2022-10-04T03:42:16.285Z,1008.72
2022-10-04T03:43:16.276Z,1008.71
2022-10-04T03:44:16.256Z,1008.68
2022-10-04T03:45:16.244Z,1008.65
2022-10-04T03:46:16.253Z,1008.66
2022-10-04T03:47:16.207Z,1008.69
2022-10-04T03:48:16.214Z,1008.70
2022-10-04T03:49:16.176Z,1008.68
2022-10-04T03:50:16.208Z,1008.67
2022-10-04T03:51:16.146Z,1008.70
2022-10-04T03:52:16.121Z,1008.67
2022-10-04T03:53:16.112Z,1008.67
2022-10-04T03:54:16.093Z,1008.62
2022-10-04T03:55:16.085Z,1008.65
2022-10-04T03:56:16.066Z,1008.65
2022-10-04T03:57:16.048Z,1008.67
2022-10-04T03:58:16.032Z,1008.68
2022-10-04T03:59:16.016Z,1008.67
2022-10-04T04:00:16.023Z,1008.66
2022-10-04T04:01:16.041Z,1008.71
2022-10-04T04:02:16.030Z,1008.64
2022-10-04T04:03:15.950Z,1008.60
2022-10-04T04:04:15.936Z,1008.61
2022-10-04T04:05:15.975Z,1008.53
2022-10-04T04:06:15.901Z,1008.58
2022-10-04T04:07:15.884Z,1008.54
2022-10-04T04:08:15.872Z,1008.50
2022-10-04T04:09:15.853Z,1008.54
2022-10-04T04:10:16.930Z,1008.52
2022-10-04T04:11:15.823Z,1008.54
2022-10-04T04:12:15.802Z,1008.57
2022-10-04T04:13:15.792Z,1008.56
2022-10-04T04:14:15.770Z,1008.53
2022-10-04T04:15:15.757Z,1008.57
2022-10-04T04:16:15.812Z,1008.58
2022-10-04T04:17:15.726Z,1008.59
2022-10-04T04:18:15.733Z,1008.55
2022-10-04T04:19:15.699Z,1008.53
2022-10-04T04:20:15.678Z,1008.51
2022-10-04T04:21:15.664Z,1008.48
2022-10-04T04:22:15.645Z,1008.50
2022-10-04T04:23:15.696Z,1008.49
2022-10-04T04:24:15.611Z,1008.55
2022-10-04T04:25:15.599Z,1008.55
2022-10-04T04:26:15.582Z,1008.61
2022-10-04T04:27:15.567Z,1008.64
2022-10-04T04:28:15.576Z,1008.66
2022-10-04T04:29:15.572Z,1008.73
2022-10-04T04:30:15.518Z,1008.69
2022-10-04T04:31:15.532Z,1008.69
2022-10-04T04:32:15.481Z,1008.63
2022-10-04T04:33:20.283Z,1008.69
2022-10-04T04:34:15.451Z,1008.63
2022-10-04T04:35:15.441Z,1008.71
2022-10-04T04:36:15.416Z,1008.71
2022-10-04T04:37:15.401Z,1008.70
2022-10-04T04:38:15.413Z,1008.72
2022-10-04T04:39:15.372Z,1008.69
2022-10-04T04:40:15.354Z,1008.70
2022-10-04T04:41:15.339Z,1008.69
2022-10-04T04:42:15.319Z,1008.71
2022-10-04T04:43:15.363Z,1008.68
2022-10-04T04:44:15.289Z,1008.69
2022-10-04T04:45:15.275Z,1008.65
2022-10-04T04:46:27.259Z,1008.67
2022-10-04T04:47:18.204Z,1008.66
2022-10-04T04:48:15.229Z,1008.60
2022-10-04T04:49:15.250Z,1008.61
2022-10-04T04:50:15.199Z,1008.60
2022-10-04T04:51:15.336Z,1008.55
2022-10-04T04:52:15.165Z,1008.53
2022-10-04T04:53:15.151Z,1008.55
2022-10-04T04:54:15.136Z,1008.50
2022-10-04T04:55:15.116Z,1008.54
2022-10-04T04:56:18.022Z,1008.49
2022-10-04T04:57:15.150Z,1008.50
2022-10-04T04:58:15.077Z,1008.51
2022-10-04T04:59:15.049Z,1008.51
2022-10-04T05:00:15.039Z,1008.57
2022-10-04T05:01:15.117Z,1008.52
2022-10-04T05:02:15.064Z,1008.50
2022-10-04T05:03:14.984Z,1008.47
2022-10-04T05:04:14.970Z,1008.48
2022-10-04T05:05:14.952Z,1008.49
2022-10-04T05:06:14.936Z,1008.49
2022-10-04T05:07:14.921Z,1008.46
2022-10-04T05:08:14.909Z,1008.46
2022-10-04T05:09:14.887Z,1008.47
2022-10-04T05:10:14.873Z,1008.47
2022-10-04T05:11:14.859Z,1008.45
2022-10-04T05:12:14.849Z,1008.45
2022-10-04T05:13:14.834Z,1008.46
2022-10-04T05:14:14.812Z,1008.43
2022-10-04T05:15:15.410Z,1008.43
2022-10-04T05:16:14.820Z,1008.42
2022-10-04T05:17:14.762Z,1008.44
2022-10-04T05:18:14.786Z,1008.37
2022-10-04T05:19:14.779Z,1008.39
2022-10-04T05:20:14.712Z,1008.42
2022-10-04T05:21:14.698Z,1008.34
2022-10-04T05:22:14.685Z,1008.40
2022-10-04T05:23:14.667Z,1008.37
2022-10-04T05:24:14.651Z,1008.40
2022-10-04T05:25:14.659Z,1008.45
2022-10-04T05:26:14.619Z,1008.39
2022-10-04T05:27:14.602Z,1008.41
2022-10-04T05:28:14.644Z,1008.41
2022-10-04T05:29:14.593Z,1008.40
2022-10-04T05:30:14.577Z,1008.45
2022-10-04T05:31:14.593Z,1008.44
2022-10-04T05:32:14.523Z,1008.43
2022-10-04T05:33:14.503Z,1008.46
2022-10-04T05:34:14.489Z,1008.39
2022-10-04T05:35:14.501Z,1008.46
2022-10-04T05:36:14.456Z,1008.39
2022-10-04T05:37:14.440Z,1008.40
2022-10-04T05:38:14.429Z,1008.49
2022-10-04T05:39:14.411Z,1008.45
2022-10-04T05:40:14.400Z,1008.51
2022-10-04T05:41:14.400Z,1008.41
2022-10-04T05:42:14.359Z,1008.42
2022-10-04T05:43:14.343Z,1008.35
2022-10-04T05:44:14.326Z,1008.40
2022-10-04T05:45:14.358Z,1008.38
2022-10-04T05:46:14.324Z,1008.38
2022-10-04T05:47:14.285Z,1008.37
2022-10-04T05:48:14.263Z,1008.36
2022-10-04T05:49:18.876Z,1008.39
2022-10-04T05:50:14.230Z,1008.39
2022-10-04T05:51:14.250Z,1008.39
2022-10-04T05:52:14.199Z,1008.39
2022-10-04T05:53:14.341Z,1008.37
2022-10-04T05:54:14.170Z,1008.39
2022-10-04T05:55:14.153Z,1008.43
2022-10-04T05:56:14.136Z,1008.37
2022-10-04T05:57:14.120Z,1008.46
2022-10-04T05:58:14.111Z,1008.51
2022-10-04T05:59:14.159Z,1008.59
2022-10-04T06:00:14.077Z,1008.62
2022-10-04T06:01:14.099Z,1008.60
2022-10-04T06:02:14.072Z,1008.56
2022-10-04T06:03:14.021Z,1008.50
2022-10-04T06:04:14.005Z,1008.60
2022-10-04T06:05:14.021Z,1008.53
2022-10-04T06:06:13.977Z,1008.53
2022-10-04T06:07:13.961Z,1008.47
2022-10-04T06:08:13.942Z,1008.49
2022-10-04T06:09:13.925Z,1008.48
2022-10-04T06:10:13.953Z,1008.44
2022-10-04T06:11:13.898Z,1008.43
2022-10-04T06:12:13.876Z,1008.44
2022-10-04T06:13:13.860Z,1008.45
2022-10-04T06:14:13.852Z,1008.50
2022-10-04T06:15:13.885Z,1008.43
2022-10-04T06:16:13.871Z,1008.56
2022-10-04T06:17:13.802Z,1008.55
2022-10-04T06:18:13.787Z,1008.54
2022-10-04T06:19:13.776Z,1008.51
2022-10-04T06:20:13.755Z,1008.50
2022-10-04T06:21:13.759Z,1008.48
2022-10-04T06:22:13.797Z,1008.44
2022-10-04T06:23:13.702Z,1008.45
2022-10-04T06:24:13.689Z,1008.47
2022-10-04T06:25:13.670Z,1008.44
2022-10-04T06:26:13.681Z,1008.38
2022-10-04T06:27:13.637Z,1008.43
2022-10-04T06:28:13.726Z,1008.40
2022-10-04T06:29:13.605Z,1008.39
2022-10-04T06:30:13.594Z,1008.37
2022-10-04T06:31:13.760Z,1008.35
2022-10-04T06:32:13.560Z,1008.35
2022-10-04T06:33:13.538Z,1008.34
2022-10-04T06:34:13.523Z,1008.35
2022-10-04T06:35:13.520Z,1008.30
2022-10-04T06:36:13.495Z,1008.36
2022-10-04T06:37:13.503Z,1008.36
2022-10-04T06:38:13.465Z,1008.37
2022-10-04T06:39:13.445Z,1008.35
2022-10-04T06:40:13.432Z,1008.30
2022-10-04T06:41:13.442Z,1008.27
2022-10-04T06:42:13.423Z,1008.31
2022-10-04T06:43:13.387Z,1008.29
2022-10-04T06:44:13.364Z,1008.29
2022-10-04T06:45:13.344Z,1008.30
2022-10-04T06:46:13.379Z,1008.27
2022-10-04T06:47:13.370Z,1008.29
2022-10-04T06:48:13.299Z,1008.32
2022-10-04T06:49:13.285Z,1008.29
2022-10-04T06:50:13.272Z,1008.31
2022-10-04T06:51:13.249Z,1008.32
2022-10-04T06:52:17.257Z,1008.34
2022-10-04T06:53:13.278Z,1008.32
2022-10-04T06:54:13.207Z,1008.38
2022-10-04T06:55:13.187Z,1008.38
2022-10-04T06:56:13.173Z,1008.40
2022-10-04T06:57:13.163Z,1008.39
2022-10-04T06:58:13.143Z,1008.46
2022-10-04T06:59:13.195Z,1008.44
2022-10-04T07:00:13.108Z,1008.50
2022-10-04T07:01:13.157Z,1008.44
2022-10-04T07:02:13.316Z,1008.44
2022-10-04T07:03:13.070Z,1008.47
2022-10-04T07:04:13.075Z,1008.44
2022-10-04T07:05:13.029Z,1008.47
2022-10-04T07:06:13.014Z,1008.46
2022-10-04T07:07:12.998Z,1008.39
2022-10-04T07:08:12.982Z,1008.41
2022-10-04T07:09:12.997Z,1008.39
2022-10-04T07:10:12.982Z,1008.43
2022-10-04T07:11:12.949Z,1008.44
2022-10-04T07:12:12.923Z,1008.42
2022-10-04T07:13:12.901Z,1008.45
2022-10-04T07:14:12.891Z,1008.45
2022-10-04T07:15:12.898Z,1008.48
2022-10-04T07:16:12.971Z,1008.51
2022-10-04T07:17:12.840Z,1008.52
2022-10-04T07:18:12.831Z,1008.50
2022-10-04T07:19:12.808Z,1008.53
2022-10-04T07:20:12.801Z,1008.53
2022-10-04T07:21:12.780Z,1008.51
2022-10-04T07:22:12.862Z,1008.47
2022-10-04T07:23:13.454Z,1008.50
2022-10-04T07:24:12.737Z,1008.53
2022-10-04T07:25:12.712Z,1008.50
2022-10-04T07:26:12.727Z,1008.49
2022-10-04T07:27:12.808Z,1008.51
2022-10-04T07:28:12.715Z,1008.51
2022-10-04T07:29:12.656Z,1008.49
2022-10-04T07:30:12.639Z,1008.49
2022-10-04T07:31:12.713Z,1008.48
2022-10-04T07:32:12.715Z,1008.48
2022-10-04T07:33:12.585Z,1008.47
2022-10-04T07:34:12.576Z,1008.50
2022-10-04T07:35:12.569Z,1008.45
2022-10-04T07:36:12.543Z,1008.46
2022-10-04T07:37:12.574Z,1008.48
2022-10-04T07:38:12.509Z,1008.49
2022-10-04T07:39:12.505Z,1008.48
2022-10-04T07:40:12.478Z,1008.45
2022-10-04T07:41:12.459Z,1008.48
2022-10-04T07:42:12.449Z,1008.49
2022-10-04T07:43:12.437Z,1008.51
2022-10-04T07:44:12.416Z,1008.51
2022-10-04T07:45:12.402Z,1008.52
2022-10-04T07:46:12.513Z,1008.56
2022-10-04T07:47:12.367Z,1008.53
2022-10-04T07:48:12.361Z,1008.56
2022-10-04T07:49:12.336Z,1008.59
2022-10-04T07:50:12.325Z,1008.58
2022-10-04T07:51:12.303Z,1008.62
2022-10-04T07:52:12.290Z,1008.62
2022-10-04T07:53:12.279Z,1008.65
2022-10-04T07:54:12.257Z,1008.70
2022-10-04T07:55:12.263Z,1008.69
2022-10-04T07:56:12.229Z,1008.72
2022-10-04T07:57:12.211Z,1008.71
2022-10-04T07:58:12.355Z,1008.71
2022-10-04T07:59:12.181Z,1008.71
2022-10-04T08:00:12.173Z,1008.70
2022-10-04T08:01:12.147Z,1008.70
2022-10-04T08:02:12.366Z,1008.71
2022-10-04T08:03:12.191Z,1008.70
2022-10-04T08:04:12.105Z,1008.68
2022-10-04T08:05:12.082Z,1008.70
2022-10-04T08:06:12.082Z,1008.73
2022-10-04T08:07:12.076Z,1008.73
2022-10-04T08:08:12.048Z,1008.74
2022-10-04T08:09:12.049Z,1008.71
2022-10-04T08:10:12.009Z,1008.68
2022-10-04T08:11:12.018Z,1008.65
2022-10-04T08:12:11.976Z,1008.70
2022-10-04T08:13:11.994Z,1008.68
2022-10-04T08:14:11.995Z,1008.70
2022-10-04T08:15:11.929Z,1008.66
2022-10-04T08:16:11.978Z,1008.63
2022-10-04T08:17:15.367Z,1008.66
2022-10-04T08:18:11.882Z,1008.64
2022-10-04T08:19:11.872Z,1008.62
2022-10-04T08:20:11.881Z,1008.62
2022-10-04T08:21:11.836Z,1008.64
2022-10-04T08:22:11.819Z,1008.68
2022-10-04T08:23:11.806Z,1008.67
2022-10-04T08:24:11.793Z,1008.68
2022-10-04T08:25:11.799Z,1008.70
2022-10-04T08:26:11.800Z,1008.67
2022-10-04T08:27:11.745Z,1008.70
2022-10-04T08:28:11.771Z,1008.67
2022-10-04T08:29:11.714Z,1008.67
2022-10-04T08:30:11.699Z,1008.68
2022-10-04T08:31:11.774Z,1008.66
2022-10-04T08:32:11.663Z,1008.61
2022-10-04T08:33:11.648Z,1008.58
2022-10-04T08:34:11.666Z,1008.59
2022-10-04T08:35:11.622Z,1008.58
2022-10-04T08:36:11.613Z,1008.54
2022-10-04T08:37:11.591Z,1008.52
2022-10-04T08:38:11.573Z,1008.51
2022-10-04T08:39:11.553Z,1008.44
2022-10-04T08:40:13.081Z,1008.48
2022-10-04T08:41:11.529Z,1008.46
2022-10-04T08:42:11.509Z,1008.43
2022-10-04T08:43:12.392Z,1008.46
2022-10-04T08:44:11.482Z,1008.46
2022-10-04T08:45:11.464Z,1008.44
2022-10-04T08:46:11.590Z,1008.46
2022-10-04T08:47:11.462Z,1008.48
2022-10-04T08:48:11.419Z,1008.48
2022-10-04T08:49:11.397Z,1008.47
2022-10-04T08:50:11.388Z,1008.47
2022-10-04T08:51:11.394Z,1008.44
2022-10-04T08:52:11.354Z,1008.40
2022-10-04T08:53:11.335Z,1008.45
2022-10-04T08:54:11.325Z,1008.43
2022-10-04T08:55:11.313Z,1008.43
2022-10-04T08:56:11.367Z,1008.44
2022-10-04T08:57:15.951Z,1008.39
2022-10-04T08:58:11.269Z,1008.38
2022-10-04T08:59:11.247Z,1008.33
2022-10-04T09:00:11.231Z,1008.29
2022-10-04T09:01:11.297Z,1008.28
2022-10-04T09:02:11.225Z,1008.28
2022-10-04T09:03:11.190Z,1008.29
2022-10-04T09:04:11.173Z,1008.29
2022-10-04T09:05:11.154Z,1008.34
2022-10-04T09:06:11.141Z,1008.35
2022-10-04T09:07:11.130Z,1008.30
2022-10-04T09:08:11.107Z,1008.32
2022-10-04T09:09:11.101Z,1008.33
2022-10-04T09:10:11.081Z,1008.27
2022-10-04T09:11:11.068Z,1008.24
2022-10-04T09:12:11.050Z,1008.26
2022-10-04T09:13:11.037Z,1008.24
2022-10-04T09:14:11.054Z,1008.22
2022-10-04T09:15:11.009Z,1008.19
2022-10-04T09:16:11.091Z,1008.16
2022-10-04T09:17:10.978Z,1008.12
2022-10-04T09:18:10.960Z,1008.11
2022-10-04T09:19:10.952Z,1008.08
2022-10-04T09:20:36.602Z,1008.08
2022-10-04T09:21:10.945Z,1008.06
2022-10-04T09:22:10.929Z,1008.13
2022-10-04T09:23:10.887Z,1008.07
2022-10-04T09:24:10.874Z,1008.14
2022-10-04T09:25:10.878Z,1008.11
2022-10-04T09:26:10.846Z,1008.07
2022-10-04T09:27:10.875Z,1008.01
2022-10-04T09:28:10.899Z,1007.98
2022-10-04T09:29:10.800Z,1007.97
2022-10-04T09:30:10.784Z,1007.97
2022-10-04T09:31:10.835Z,1007.90
2022-10-04T09:32:10.757Z,1007.94
2022-10-04T09:33:10.768Z,1007.95
2022-10-04T09:34:10.763Z,1007.87
2022-10-04T09:35:10.723Z,1007.84
2022-10-04T09:36:10.716Z,1007.86
2022-10-04T09:37:10.725Z,1007.84
2022-10-04T09:38:10.674Z,1007.83
2022-10-04T09:39:29.462Z,1007.83
2022-10-04T09:40:10.638Z,1007.78
2022-10-04T09:41:10.644Z,1007.82
2022-10-04T09:42:10.639Z,1007.73
2022-10-04T09:43:10.598Z,1007.78
2022-10-04T09:44:10.581Z,1007.69
2022-10-04T09:45:10.570Z,1007.71
2022-10-04T09:46:10.568Z,1007.72
2022-10-04T09:47:10.730Z,1007.69
2022-10-04T09:48:10.526Z,1007.68
2022-10-04T09:49:10.514Z,1007.69
2022-10-04T09:50:10.500Z,1007.71
2022-10-04T09:51:10.501Z,1007.70
2022-10-04T09:52:10.481Z,1007.69
2022-10-04T09:53:10.481Z,1007.63
2022-10-04T09:54:10.442Z,1007.59
2022-10-04T09:55:10.430Z,1007.60
2022-10-04T09:56:10.412Z,1007.59
2022-10-04T09:57:10.400Z,1007.51
2022-10-04T09:58:10.408Z,1007.56
2022-10-04T09:59:10.368Z,1007.59
2022-10-04T10:00:10.358Z,1007.57
2022-10-04T10:01:10.345Z,1007.59
2022-10-04T10:02:10.326Z,1007.56
2022-10-04T10:03:15.418Z,1007.59
2022-10-04T10:04:10.293Z,1007.61
2022-10-04T10:05:10.326Z,1007.62
2022-10-04T10:06:10.269Z,1007.63
2022-10-04T10:07:10.261Z,1007.60
2022-10-04T10:08:10.246Z,1007.59
2022-10-04T10:09:10.229Z,1007.59
2022-10-04T10:10:10.218Z,1007.54
2022-10-04T10:11:10.206Z,1007.60
2022-10-04T10:12:10.185Z,1007.57
2022-10-04T10:13:10.171Z,1007.55
2022-10-04T10:14:10.157Z,1007.56
2022-10-04T10:15:10.215Z,1007.53
2022-10-04T10:16:10.176Z,1007.54
2022-10-04T10:17:10.114Z,1007.49
2022-10-04T10:18:10.101Z,1007.46
2022-10-04T10:19:10.095Z,1007.49
2022-10-04T10:20:10.083Z,1007.45
2022-10-04T10:21:10.098Z,1007.48
2022-10-04T10:22:10.078Z,1007.47
2022-10-04T10:23:10.036Z,1007.51
2022-10-04T10:24:10.035Z,1007.51
2022-10-04T10:25:10.011Z,1007.54
2022-10-04T10:26:09.993Z,1007.55
2022-10-04T10:27:09.983Z,1007.51
2022-10-04T10:28:10.049Z,1007.57
2022-10-04T10:29:09.949Z,1007.58
2022-10-04T10:30:09.945Z,1007.55
2022-10-04T10:31:10.011Z,1007.62
2022-10-04T10:32:09.909Z,1007.55
2022-10-04T10:33:09.922Z,1007.58
2022-10-04T10:34:09.920Z,1007.54
2022-10-04T10:35:09.872Z,1007.59
2022-10-04T10:36:09.851Z,1007.58
2022-10-04T10:37:09.842Z,1007.53
2022-10-04T10:38:09.835Z,1007.55
2022-10-04T10:39:09.843Z,1007.51
2022-10-04T10:40:09.822Z,1007.52
2022-10-04T10:41:09.790Z,1007.53
2022-10-04T10:42:09.768Z,1007.50
2022-10-04T10:43:09.787Z,1007.57
2022-10-04T10:44:09.740Z,1007.56
2022-10-04T10:45:09.730Z,1007.56
2022-10-04T10:46:09.786Z,1007.58
2022-10-04T10:47:09.727Z,1007.59
2022-10-04T10:48:09.714Z,1007.59
2022-10-04T10:49:09.696Z,1007.56
2022-10-04T10:50:09.659Z,1007.53
2022-10-04T10:51:09.654Z,1007.52
2022-10-04T10:52:09.639Z,1007.49
2022-10-04T10:53:09.648Z,1007.48
2022-10-04T10:54:09.606Z,1007.51
2022-10-04T10:55:09.601Z,1007.49
2022-10-04T10:56:09.597Z,1007.49
2022-10-04T10:57:09.568Z,1007.47
2022-10-04T10:58:09.556Z,1007.48
2022-10-04T10:59:09.545Z,1007.49
2022-10-04T11:00:09.556Z,1007.45
2022-10-04T11:01:09.512Z,1007.48
2022-10-04T11:02:09.554Z,1007.49
2022-10-04T11:03:13.702Z,1007.52
2022-10-04T11:04:09.510Z,1007.46
2022-10-04T11:05:09.577Z,1007.44
2022-10-04T11:06:09.457Z,1007.48
2022-10-04T11:07:09.435Z,1007.46
2022-10-04T11:08:09.426Z,1007.45
2022-10-04T11:09:09.412Z,1007.46
2022-10-04T11:10:09.396Z,1007.46
2022-10-04T11:11:09.416Z,1007.47
2022-10-04T11:12:09.365Z,1007.44
2022-10-04T11:13:09.353Z,1007.43
2022-10-04T11:14:09.365Z,1007.44
2022-10-04T11:15:09.327Z,1007.39
2022-10-04T11:16:09.375Z,1007.35
2022-10-04T11:17:09.305Z,1007.36
2022-10-04T11:18:09.323Z,1007.35
2022-10-04T11:19:09.276Z,1007.36
2022-10-04T11:20:09.317Z,1007.33
2022-10-04T11:21:09.246Z,1007.29
2022-10-04T11:22:09.255Z,1007.33
2022-10-04T11:23:09.228Z,1007.30
2022-10-04T11:24:09.210Z,1007.35
2022-10-04T11:25:09.250Z,1007.37
2022-10-04T11:26:09.179Z,1007.40
2022-10-04T11:27:09.170Z,1007.35
2022-10-04T11:28:09.294Z,1007.34
2022-10-04T11:29:09.147Z,1007.36
2022-10-04T11:30:09.191Z,1007.29
2022-10-04T11:31:09.187Z,1007.25
2022-10-04T11:32:09.102Z,1007.23
2022-10-04T11:33:09.092Z,1007.21
2022-10-04T11:34:12.111Z,1007.22
2022-10-04T11:35:09.069Z,1007.18
2022-10-04T11:36:09.089Z,1007.17
2022-10-04T11:37:09.043Z,1007.17
2022-10-04T11:38:09.025Z,1007.15
2022-10-04T11:39:09.021Z,1007.16
2022-10-04T11:40:09.016Z,1007.14
2022-10-04T11:41:08.989Z,1007.10
2022-10-04T11:42:08.978Z,1007.08
2022-10-04T11:43:08.964Z,1007.11
2022-10-04T11:44:08.945Z,1007.09
2022-10-04T11:45:08.951Z,1007.04
2022-10-04T11:46:11.006Z,1007.02
2022-10-04T11:47:09.009Z,1007.03
2022-10-04T11:48:08.895Z,1007.05
2022-10-04T11:49:08.891Z,1007.02
2022-10-04T11:50:08.890Z,1007.05
2022-10-04T11:51:08.865Z,1007.04
2022-10-04T11:52:08.848Z,1007.00
2022-10-04T11:53:08.853Z,1007.01
2022-10-04T11:54:08.887Z,1006.98
2022-10-04T11:55:08.813Z,1007.00
2022-10-04T11:56:08.798Z,1006.93
2022-10-04T11:57:08.803Z,1006.97
2022-10-04T11:58:12.021Z,1006.95
2022-10-04T11:59:08.760Z,1006.89
2022-10-04T12:00:08.850Z,1006.87
2022-10-04T12:01:08.734Z,1006.85
2022-10-04T12:02:08.731Z,1006.85
2022-10-04T12:03:08.747Z,1006.83
2022-10-04T12:04:08.795Z,1006.85
2022-10-04T12:05:08.698Z,1006.81